sensor_id;sensor_type;location;lat;lon;timestamp;pressure;altitude;pressure_sealevel;temperature;humidity
10006;BME280;5042;42.626;23.382;2024-03-23T00:54:03;150170.56;;;4.28;100.00
10006;BME280;5042;42.626;23.382;2024-03-23T00:56:29;150180.91;;;4.32;100.00
10006;BME280;5042;42.626;23.382;2024-03-23T00:58:56;150187.34;;;4.35;100.00
10006;BME280;5042;42.626;23.382;2024-03-23T01:01:22;150196.34;;;4.38;100.00
10006;BME280;5042;42.626;23.382;2024-03-23T01:03:49;150182.19;;;4.33;100.00
10006;BME280;5042;42.626;23.382;2024-03-23T01:06:15;150169.28;;;4.28;100.00
10006;BME280;5042;42.626;23.382;2024-03-23T01:08:43;150184.75;;;4.34;100.00
10006;BME280;5042;42.626;23.382;2024-03-23T01:11:09;150197.63;;;4.39;100.00
10006;BME280;5042;42.626;23.382;2024-03-23T01:13:36;150210.59;;;4.44;100.00
10006;BME280;5042;42.626;23.382;2024-03-23T01:16:02;150201.53;;;4.40;100.00
10006;BME280;5042;42.626;23.382;2024-03-23T01:18:29;150195.06;;;4.38;100.00
10006;BME280;5042;42.626;23.382;2024-03-23T01:20:55;150179.56;;;4.32;100.00
10006;BME280;5042;42.626;23.382;2024-03-23T01:23:22;150202.81;;;4.41;100.00
10006;BME280;5042;42.626;23.382;2024-03-23T01:25:53;150200.25;;;4.40;99.59
10006;BME280;5042;42.626;23.382;2024-03-23T01:28:20;150192.53;;;4.37;99.86
10006;BME280;5042;42.626;23.382;2024-03-23T01:30:46;150204.13;;;4.41;99.45
10006;BME280;5042;42.626;23.382;2024-03-23T01:33:13;150094.41;;;3.98;99.89
10006;BME280;5042;42.626;23.382;2024-03-23T01:35:38;150197.63;;;4.39;99.96
10006;BME280;5042;42.626;23.382;2024-03-23T01:38:06;150161.50;;;4.24;100.00
10006;BME280;5042;42.626;23.382;2024-03-23T01:40:32;150165.41;;;4.26;100.00
10006;BME280;5042;42.626;23.382;2024-03-23T01:43:03;150139.59;;;4.16;100.00
10006;BME280;5042;42.626;23.382;2024-03-23T01:45:30;150122.81;;;4.09;100.00
10006;BME280;5042;42.626;23.382;2024-03-23T01:47:57;150120.25;;;4.08;100.00
10006;BME280;5042;42.626;23.382;2024-03-23T01:50:23;150071.19;;;3.89;100.00
10006;BME280;5042;42.626;23.382;2024-03-23T01:52:51;150042.84;;;3.77;100.00
10006;BME280;5042;42.626;23.382;2024-03-23T01:55:17;150022.19;;;3.69;100.00
10006;BME280;5042;42.626;23.382;2024-03-23T01:57:44;150020.91;;;3.69;100.00
10006;BME280;5042;42.626;23.382;2024-03-23T02:00:13;150006.72;;;3.63;100.00
10006;BME280;5042;42.626;23.382;2024-03-23T02:02:43;150019.63;;;3.68;100.00
10006;BME280;5042;42.626;23.382;2024-03-23T02:05:10;150011.84;;;3.65;100.00
10006;BME280;5042;42.626;23.382;2024-03-23T02:07:37;149996.41;;;3.59;100.00
10006;BME280;5042;42.626;23.382;2024-03-23T02:10:05;149971.91;;;3.49;100.00
10006;BME280;5042;42.626;23.382;2024-03-23T02:12:32;149988.63;;;3.56;100.00
10006;BME280;5042;42.626;23.382;2024-03-23T02:14:58;150000.25;;;3.60;100.00
10006;BME280;5042;42.626;23.382;2024-03-23T02:17:26;150031.25;;;3.73;100.00
10006;BME280;5042;42.626;23.382;2024-03-23T02:19:52;150020.91;;;3.69;100.00
10006;BME280;5042;42.626;23.382;2024-03-23T02:22:19;150022.19;;;3.69;100.00
10006;BME280;5042;42.626;23.382;2024-03-23T02:24:46;150008.00;;;3.64;100.00
10006;BME280;5042;42.626;23.382;2024-03-23T02:27:14;149957.69;;;3.44;100.00
10006;BME280;5042;42.626;23.382;2024-03-23T02:29:40;149929.34;;;3.32;100.00
10006;BME280;5042;42.626;23.382;2024-03-23T02:32:06;149913.84;;;3.26;100.00
10006;BME280;5042;42.626;23.382;2024-03-23T02:34:34;149890.66;;;3.17;100.00
10006;BME280;5042;42.626;23.382;2024-03-23T02:37:01;149890.66;;;3.17;100.00
10006;BME280;5042;42.626;23.382;2024-03-23T02:39:27;149916.41;;;3.27;100.00
10006;BME280;5042;42.626;23.382;2024-03-23T02:41:56;149938.34;;;3.36;100.00
10006;BME280;5042;42.626;23.382;2024-03-23T02:44:22;149926.75;;;3.31;100.00
10006;BME280;5042;42.626;23.382;2024-03-23T02:46:49;149937.06;;;3.35;100.00
10006;BME280;5042;42.626;23.382;2024-03-23T02:49:15;149961.56;;;3.45;100.00
10006;BME280;5042;42.626;23.382;2024-03-23T02:51:42;149940.97;;;3.37;100.00
10006;BME280;5042;42.626;23.382;2024-03-23T02:54:10;149868.72;;;3.08;100.00
10006;BME280;5042;42.626;23.382;2024-03-23T02:56:37;149894.53;;;3.18;100.00
10006;BME280;5042;42.626;23.382;2024-03-23T02:59:04;149885.47;;;3.15;100.00
10006;BME280;5042;42.626;23.382;2024-03-23T03:01:31;149885.47;;;3.15;100.00
10006;BME280;5042;42.626;23.382;2024-03-23T03:03:57;149908.69;;;3.24;100.00
10006;BME280;5042;42.626;23.382;2024-03-23T03:06:24;149909.97;;;3.25;100.00
10006;BME280;5042;42.626;23.382;2024-03-23T03:08:50;149924.19;;;3.30;100.00
10006;BME280;5042;42.626;23.382;2024-03-23T03:11:17;149929.34;;;3.32;100.00
10006;BME280;5042;42.626;23.382;2024-03-23T03:13:43;149944.78;;;3.38;100.00
10006;BME280;5042;42.626;23.382;2024-03-23T03:16:11;149948.69;;;3.40;100.00
10006;BME280;5042;42.626;23.382;2024-03-23T03:18:38;149903.53;;;3.22;99.59
10006;BME280;5042;42.626;23.382;2024-03-23T03:21:05;149952.53;;;3.42;99.61
10006;BME280;5042;42.626;23.382;2024-03-23T03:23:36;149962.84;;;3.46;100.00
10006;BME280;5042;42.626;23.382;2024-03-23T03:26:03;149968.00;;;3.48;100.00
10006;BME280;5042;42.626;23.382;2024-03-23T03:28:29;149960.28;;;3.45;100.00
10006;BME280;5042;42.626;23.382;2024-03-23T03:30:56;149973.19;;;3.50;99.29
10006;BME280;5042;42.626;23.382;2024-03-23T03:33:24;149969.28;;;3.48;98.27
10006;BME280;5042;42.626;23.382;2024-03-23T03:35:50;149965.47;;;3.47;98.42
10006;BME280;5042;42.626;23.382;2024-03-23T03:38:18;149955.13;;;3.43;97.34
10006;BME280;5042;42.626;23.382;2024-03-23T03:40:45;149960.28;;;3.45;97.67
10006;BME280;5042;42.626;23.382;2024-03-23T03:43:11;149938.34;;;3.36;98.46
10006;BME280;5042;42.626;23.382;2024-03-23T03:45:38;149946.06;;;3.39;99.23
10006;BME280;5042;42.626;23.382;2024-03-23T03:48:04;149913.84;;;3.26;100.00
10006;BME280;5042;42.626;23.382;2024-03-23T03:50:32;149925.47;;;3.31;100.00
10006;BME280;5042;42.626;23.382;2024-03-23T03:52:58;149930.63;;;3.33;100.00
10006;BME280;5042;42.626;23.382;2024-03-23T03:55:25;149916.41;;;3.27;100.00
10006;BME280;5042;42.626;23.382;2024-03-23T03:57:51;149922.84;;;3.30;100.00
10006;BME280;5042;42.626;23.382;2024-03-23T04:00:18;149903.53;;;3.22;100.00
10006;BME280;5042;42.626;23.382;2024-03-23T04:02:44;149908.69;;;3.24;100.00
10006;BME280;5042;42.626;23.382;2024-03-23T04:05:11;149933.19;;;3.34;100.00
10006;BME280;5042;42.626;23.382;2024-03-23T04:07:38;149952.53;;;3.42;100.00
10006;BME280;5042;42.626;23.382;2024-03-23T04:10:06;149904.81;;;3.23;100.00
10006;BME280;5042;42.626;23.382;2024-03-23T04:12:33;149921.56;;;3.29;100.00
10006;BME280;5042;42.626;23.382;2024-03-23T04:15:00;149898.38;;;3.20;100.00
10006;BME280;5042;42.626;23.382;2024-03-23T04:17:29;149875.19;;;3.11;100.00
10006;BME280;5042;42.626;23.382;2024-03-23T04:19:57;149880.31;;;3.13;100.00
10006;BME280;5042;42.626;23.382;2024-03-23T04:22:24;149863.59;;;3.06;100.00
10006;BME280;5042;42.626;23.382;2024-03-23T04:24:53;149846.81;;;3.00;100.00
10006;BME280;5042;42.626;23.382;2024-03-23T04:27:19;149808.13;;;2.84;100.00
10006;BME280;5042;42.626;23.382;2024-03-23T04:29:47;149790.09;;;2.77;100.00
10006;BME280;5042;42.626;23.382;2024-03-23T04:32:13;149786.25;;;2.75;100.00
10006;BME280;5042;42.626;23.382;2024-03-23T04:34:40;149796.53;;;2.80;100.00
10006;BME280;5042;42.626;23.382;2024-03-23T04:37:06;149779.81;;;2.73;100.00
10006;BME280;5042;42.626;23.382;2024-03-23T04:39:34;149815.91;;;2.87;100.00
10006;BME280;5042;42.626;23.382;2024-03-23T04:42:02;149805.56;;;2.83;100.00
10006;BME280;5042;42.626;23.382;2024-03-23T04:44:29;149760.44;;;2.65;100.00
10006;BME280;5042;42.626;23.382;2024-03-23T04:46:57;149839.06;;;2.96;100.00
10006;BME280;5042;42.626;23.382;2024-03-23T04:49:24;149808.13;;;2.84;100.00
10006;BME280;5042;42.626;23.382;2024-03-23T04:51:51;149828.78;;;2.92;100.00
10006;BME280;5042;42.626;23.382;2024-03-23T04:54:18;149852.00;;;3.02;100.00
10006;BME280;5042;42.626;23.382;2024-03-23T04:56:43;149866.16;;;3.07;100.00
10006;BME280;5042;42.626;23.382;2024-03-23T04:59:12;149890.66;;;3.17;100.00
10006;BME280;5042;42.626;23.382;2024-03-23T05:01:38;149870.03;;;3.09;100.00
10006;BME280;5042;42.626;23.382;2024-03-23T05:04:07;149882.91;;;3.14;100.00
10006;BME280;5042;42.626;23.382;2024-03-23T05:06:33;149860.97;;;3.05;100.00
10006;BME280;5042;42.626;23.382;2024-03-23T05:09:01;149797.84;;;2.80;100.00
10006;BME280;5042;42.626;23.382;2024-03-23T05:11:28;149831.34;;;2.93;100.00
10006;BME280;5042;42.626;23.382;2024-03-23T05:13:55;149857.09;;;3.04;100.00
10006;BME280;5042;42.626;23.382;2024-03-23T05:16:23;149863.59;;;3.06;100.00
10006;BME280;5042;42.626;23.382;2024-03-23T05:18:50;149859.72;;;3.05;100.00
10006;BME280;5042;42.626;23.382;2024-03-23T05:21:16;149844.22;;;2.98;100.00
10006;BME280;5042;42.626;23.382;2024-03-23T05:23:43;149860.97;;;3.05;100.00
10006;BME280;5042;42.626;23.382;2024-03-23T05:26:09;149864.88;;;3.07;100.00
10006;BME280;5042;42.626;23.382;2024-03-23T05:28:36;149867.44;;;3.08;100.00
10006;BME280;5042;42.626;23.382;2024-03-23T05:31:02;149889.38;;;3.16;100.00
10006;BME280;5042;42.626;23.382;2024-03-23T05:33:30;149939.63;;;3.36;100.00
10006;BME280;5042;42.626;23.382;2024-03-23T05:35:57;149943.50;;;3.38;100.00
10006;BME280;5042;42.626;23.382;2024-03-23T05:38:24;149960.28;;;3.45;100.00
10006;BME280;5042;42.626;23.382;2024-03-23T05:40:54;149983.50;;;3.54;100.00
10006;BME280;5042;42.626;23.382;2024-03-23T05:43:21;149944.78;;;3.38;100.00
10006;BME280;5042;42.626;23.382;2024-03-23T05:45:53;149949.97;;;3.40;100.00
10006;BME280;5042;42.626;23.382;2024-03-23T05:48:20;149952.53;;;3.42;100.00
10006;BME280;5042;42.626;23.382;2024-03-23T05:50:47;150066.03;;;3.87;100.00
10006;BME280;5042;42.626;23.382;2024-03-23T05:53:14;150246.72;;;4.58;100.00
10006;BME280;5042;42.626;23.382;2024-03-23T05:55:40;150483.00;;;5.52;100.00
10006;BME280;5042;42.626;23.382;2024-03-23T05:58:07;150714.41;;;6.44;100.00
10006;BME280;5042;42.626;23.382;2024-03-23T06:00:33;150846.28;;;6.96;93.42
10006;BME280;5042;42.626;23.382;2024-03-23T06:03:00;151019.63;;;7.64;88.53
10006;BME280;5042;42.626;23.382;2024-03-23T06:05:28;151241.03;;;8.52;82.10
10006;BME280;5042;42.626;23.382;2024-03-23T06:07:56;151476.78;;;9.45;73.34
10006;BME280;5042;42.626;23.382;2024-03-23T06:10:22;151614.16;;;10.00;68.90
10006;BME280;5042;42.626;23.382;2024-03-23T06:12:50;151743.84;;;10.51;65.30
10006;BME280;5042;42.626;23.382;2024-03-23T06:15:17;151835.97;;;10.87;63.41
10006;BME280;5042;42.626;23.382;2024-03-23T06:17:44;151925.50;;;11.22;60.18
10006;BME280;5042;42.626;23.382;2024-03-23T06:20:10;151829.50;;;10.85;58.12
10006;BME280;5042;42.626;23.382;2024-03-23T06:22:37;151872.28;;;11.01;59.52
10006;BME280;5042;42.626;23.382;2024-03-23T06:25:05;151999.44;;;11.52;58.78
10006;BME280;5042;42.626;23.382;2024-03-23T06:27:32;152030.59;;;11.64;55.98
10006;BME280;5042;42.626;23.382;2024-03-23T06:29:58;152118.94;;;11.99;55.07
10006;BME280;5042;42.626;23.382;2024-03-23T06:32:25;152022.81;;;11.61;55.70
10006;BME280;5042;42.626;23.382;2024-03-23T06:34:51;152016.34;;;11.58;55.14
10006;BME280;5042;42.626;23.382;2024-03-23T06:37:18;152012.41;;;11.57;54.54
10006;BME280;5042;42.626;23.382;2024-03-23T06:39:46;152135.81;;;12.05;54.61
10006;BME280;5042;42.626;23.382;2024-03-23T06:42:14;152155.28;;;12.13;53.61
10006;BME280;5042;42.626;23.382;2024-03-23T06:44:40;152251.38;;;12.51;52.61
10006;BME280;5042;42.626;23.382;2024-03-23T06:47:07;152289.03;;;12.66;51.55
10006;BME280;5042;42.626;23.382;2024-03-23T06:49:33;152428.03;;;13.21;53.71
10006;BME280;5042;42.626;23.382;2024-03-23T06:52:00;152381.25;;;13.02;51.23
10006;BME280;5042;42.626;23.382;2024-03-23T06:54:26;152273.44;;;12.60;54.26
10006;BME280;5042;42.626;23.382;2024-03-23T06:56:53;152342.31;;;12.87;52.04
10006;BME280;5042;42.626;23.382;2024-03-23T06:59:20;152268.28;;;12.58;52.51
10006;BME280;5042;42.626;23.382;2024-03-23T07:01:47;152394.25;;;13.07;54.99
10006;BME280;5042;42.626;23.382;2024-03-23T07:04:13;152324.13;;;12.80;50.97
10006;BME280;5042;42.626;23.382;2024-03-23T07:06:42;152257.88;;;12.54;51.28
10006;BME280;5042;42.626;23.382;2024-03-23T07:09:09;152563.28;;;13.74;50.94
10006;BME280;5042;42.626;23.382;2024-03-23T07:11:36;152433.25;;;13.23;50.79
10006;BME280;5042;42.626;23.382;2024-03-23T07:14:02;152399.44;;;13.09;51.71
10006;BME280;5042;42.626;23.382;2024-03-23T07:16:30;152378.69;;;13.01;50.53
10006;BME280;5042;42.626;23.382;2024-03-23T07:18:56;152395.56;;;13.08;50.32
10006;BME280;5042;42.626;23.382;2024-03-23T07:21:24;152368.28;;;12.97;51.58
10006;BME280;5042;42.626;23.382;2024-03-23T07:23:50;152564.56;;;13.74;51.07
10006;BME280;5042;42.626;23.382;2024-03-23T07:26:16;152491.78;;;13.46;49.41
10006;BME280;5042;42.626;23.382;2024-03-23T07:28:44;152522.97;;;13.58;49.49
10006;BME280;5042;42.626;23.382;2024-03-23T07:31:12;152659.50;;;14.12;48.91
10006;BME280;5042;42.626;23.382;2024-03-23T07:33:43;152796.06;;;14.66;46.84
10006;BME280;5042;42.626;23.382;2024-03-23T07:36:11;152826.00;;;14.77;47.65
10006;BME280;5042;42.626;23.382;2024-03-23T07:38:37;152723.19;;;14.37;48.87
10006;BME280;5042;42.626;23.382;2024-03-23T07:41:04;152794.78;;;14.65;49.43
10006;BME280;5042;42.626;23.382;2024-03-23T07:43:31;152911.84;;;15.11;49.40
10006;BME280;5042;42.626;23.382;2024-03-23T07:45:58;152976.94;;;15.37;46.29
10006;BME280;5042;42.626;23.382;2024-03-23T07:48:24;152957.41;;;15.29;46.50
10006;BME280;5042;42.626;23.382;2024-03-23T07:51:00;152936.56;;;15.21;45.48
10006;BME280;5042;42.626;23.382;2024-03-23T07:53:27;152995.16;;;15.44;44.62
10006;BME280;5042;42.626;23.382;2024-03-23T07:55:57;152953.50;;;15.27;46.36
10006;BME280;5042;42.626;23.382;2024-03-23T07:58:24;152846.84;;;14.86;45.48
10006;BME280;5042;42.626;23.382;2024-03-23T08:00:51;153008.16;;;15.49;46.07
10006;BME280;5042;42.626;23.382;2024-03-23T08:03:16;152896.25;;;15.05;45.70
10006;BME280;5042;42.626;23.382;2024-03-23T08:05:43;152613.97;;;13.94;45.65
10006;BME280;5042;42.626;23.382;2024-03-23T08:08:11;152506.06;;;13.51;47.29
10006;BME280;5042;42.626;23.382;2024-03-23T08:10:47;152675.06;;;14.18;49.57
10006;BME280;5042;42.626;23.382;2024-03-23T08:13:13;152784.38;;;14.61;46.02
10006;BME280;5042;42.626;23.382;2024-03-23T08:15:40;152727.09;;;14.38;45.40
10006;BME280;5042;42.626;23.382;2024-03-23T08:18:06;152616.53;;;13.95;46.93
10006;BME280;5042;42.626;23.382;2024-03-23T08:20:33;152573.66;;;13.78;47.74
10006;BME280;5042;42.626;23.382;2024-03-23T08:22:59;152623.03;;;13.97;47.09
10006;BME280;5042;42.626;23.382;2024-03-23T08:25:27;152568.44;;;13.76;51.40
10006;BME280;5042;42.626;23.382;2024-03-23T08:28:11;152630.88;;;14.00;48.81
10006;BME280;5042;42.626;23.382;2024-03-23T08:30:38;152655.56;;;14.10;48.61
10006;BME280;5042;42.626;23.382;2024-03-23T08:33:04;152537.25;;;13.64;49.37
10006;BME280;5042;42.626;23.382;2024-03-23T08:35:31;152732.31;;;14.40;49.58
10006;BME280;5042;42.626;23.382;2024-03-23T08:37:57;152805.19;;;14.69;47.98
10006;BME280;5042;42.626;23.382;2024-03-23T08:40:24;152857.22;;;14.90;46.32
10006;BME280;5042;42.626;23.382;2024-03-23T08:42:51;152783.06;;;14.60;46.12
10006;BME280;5042;42.626;23.382;2024-03-23T08:45:18;152767.44;;;14.54;47.20
10006;BME280;5042;42.626;23.382;2024-03-23T08:47:44;152902.78;;;15.08;48.03
10006;BME280;5042;42.626;23.382;2024-03-23T08:50:11;152945.69;;;15.24;44.06
10006;BME280;5042;42.626;23.382;2024-03-23T08:52:37;153178.78;;;16.16;45.17
10006;BME280;5042;42.626;23.382;2024-03-23T08:55:04;153197.03;;;16.23;44.05
10006;BME280;5042;42.626;23.382;2024-03-23T08:57:30;153194.38;;;16.22;43.46
10006;BME280;5042;42.626;23.382;2024-03-23T08:59:58;153114.97;;;15.91;42.94
10006;BME280;5042;42.626;23.382;2024-03-23T09:02:24;153070.72;;;15.74;46.39
10006;BME280;5042;42.626;23.382;2024-03-23T09:04:51;153109.75;;;15.89;45.22
10006;BME280;5042;42.626;23.382;2024-03-23T09:07:17;153169.66;;;16.13;42.57
10006;BME280;5042;42.626;23.382;2024-03-23T09:09:44;153161.84;;;16.09;42.09
10006;BME280;5042;42.626;23.382;2024-03-23T09:12:10;153074.59;;;15.75;42.63
10006;BME280;5042;42.626;23.382;2024-03-23T09:14:37;153072.00;;;15.74;44.00
10006;BME280;5042;42.626;23.382;2024-03-23T09:17:04;153148.84;;;16.04;45.44
10006;BME280;5042;42.626;23.382;2024-03-23T09:19:31;153155.34;;;16.07;43.21
10006;BME280;5042;42.626;23.382;2024-03-23T09:21:57;153087.66;;;15.80;42.17
10006;BME280;5042;42.626;23.382;2024-03-23T09:24:23;153117.53;;;15.92;42.79
10006;BME280;5042;42.626;23.382;2024-03-23T09:26:51;153168.34;;;16.12;43.04
10006;BME280;5042;42.626;23.382;2024-03-23T09:29:18;153040.72;;;15.62;44.21
10006;BME280;5042;42.626;23.382;2024-03-23T09:31:44;153105.88;;;15.87;46.83
10006;BME280;5042;42.626;23.382;2024-03-23T09:34:13;153328.53;;;16.75;43.99
10006;BME280;5042;42.626;23.382;2024-03-23T09:36:38;153314.22;;;16.69;43.50
10006;BME280;5042;42.626;23.382;2024-03-23T09:39:06;153120.19;;;15.93;42.73
10006;BME280;5042;42.626;23.382;2024-03-23T09:41:34;152974.34;;;15.36;42.84
10006;BME280;5042;42.626;23.382;2024-03-23T09:44:01;152966.50;;;15.33;43.01
10006;BME280;5042;42.626;23.382;2024-03-23T09:46:27;153049.81;;;15.65;47.41
10006;BME280;5042;42.626;23.382;2024-03-23T09:48:55;153193.09;;;16.22;47.02
10006;BME280;5042;42.626;23.382;2024-03-23T09:51:23;153199.59;;;16.24;41.81
10006;BME280;5042;42.626;23.382;2024-03-23T09:53:50;153056.31;;;15.68;43.43
10006;BME280;5042;42.626;23.382;2024-03-23T09:56:17;153077.22;;;15.76;43.04
10006;BME280;5042;42.626;23.382;2024-03-23T09:58:44;153224.34;;;16.34;43.13
10006;BME280;5042;42.626;23.382;2024-03-23T10:01:10;153219.13;;;16.32;42.09
10006;BME280;5042;42.626;23.382;2024-03-23T10:03:44;153187.88;;;16.20;43.91
10006;BME280;5042;42.626;23.382;2024-03-23T10:06:10;153286.91;;;16.59;45.57
10006;BME280;5042;42.626;23.382;2024-03-23T10:08:38;153236.06;;;16.39;42.24
10006;BME280;5042;42.626;23.382;2024-03-23T10:11:22;153237.34;;;16.39;41.70
10006;BME280;5042;42.626;23.382;2024-03-23T10:13:51;153250.38;;;16.44;41.92
10006;BME280;5042;42.626;23.382;2024-03-23T10:16:23;153284.25;;;16.58;41.78
10006;BME280;5042;42.626;23.382;2024-03-23T10:18:52;153311.63;;;16.68;45.23
10006;BME280;5042;42.626;23.382;2024-03-23T10:21:18;153333.75;;;16.77;41.37
10006;BME280;5042;42.626;23.382;2024-03-23T10:23:46;153341.66;;;16.80;41.69
10006;BME280;5042;42.626;23.382;2024-03-23T10:26:14;153312.94;;;16.69;41.40
10006;BME280;5042;42.626;23.382;2024-03-23T10:28:57;153242.56;;;16.41;40.88
10006;BME280;5042;42.626;23.382;2024-03-23T10:31:26;153297.28;;;16.63;40.46
10006;BME280;5042;42.626;23.382;2024-03-23T10:33:53;153375.50;;;16.93;39.56
10006;BME280;5042;42.626;23.382;2024-03-23T10:36:20;153335.09;;;16.78;40.63
10006;BME280;5042;42.626;23.382;2024-03-23T10:38:50;153280.34;;;16.56;40.19
10006;BME280;5042;42.626;23.382;2024-03-23T10:41:16;153130.63;;;15.97;40.17
10006;BME280;5042;42.626;23.382;2024-03-23T10:43:45;153099.31;;;15.85;39.63
10006;BME280;5042;42.626;23.382;2024-03-23T10:46:12;153165.72;;;16.11;39.89
10006;BME280;5042;42.626;23.382;2024-03-23T10:48:40;153280.34;;;16.56;45.03
10006;BME280;5042;42.626;23.382;2024-03-23T10:51:07;153328.53;;;16.75;39.83
10006;BME280;5042;42.626;23.382;2024-03-23T10:53:35;153449.78;;;17.23;47.79
10006;BME280;5042;42.626;23.382;2024-03-23T10:56:04;153564.50;;;17.68;42.63
10006;BME280;5042;42.626;23.382;2024-03-23T10:58:34;153658.38;;;18.05;40.09
10006;BME280;5042;42.626;23.382;2024-03-23T11:01:03;153568.38;;;17.69;36.37
10006;BME280;5042;42.626;23.382;2024-03-23T11:03:30;153777.06;;;18.51;38.81
10006;BME280;5042;42.626;23.382;2024-03-23T11:05:57;153829.22;;;18.72;35.75
10006;BME280;5042;42.626;23.382;2024-03-23T11:08:31;153722.31;;;18.30;37.66
10006;BME280;5042;42.626;23.382;2024-03-23T11:13:51;153529.28;;;17.54;35.13
10006;BME280;5042;42.626;23.382;2024-03-23T11:16:22;153481.06;;;17.35;35.88
10006;BME280;5042;42.626;23.382;2024-03-23T11:18:49;153478.44;;;17.34;39.56
10006;BME280;5042;42.626;23.382;2024-03-23T11:21:52;153426.34;;;17.13;35.92
10006;BME280;5042;42.626;23.382;2024-03-23T11:24:19;153362.47;;;16.88;35.26
10006;BME280;5042;42.626;23.382;2024-03-23T11:26:46;153319.44;;;16.71;38.31
10006;BME280;5042;42.626;23.382;2024-03-23T11:29:14;153448.47;;;17.22;37.04
10006;BME280;5042;42.626;23.382;2024-03-23T11:31:46;153615.38;;;17.88;36.87
10006;BME280;5042;42.626;23.382;2024-03-23T11:34:13;153736.63;;;18.35;35.29
10006;BME280;5042;42.626;23.382;2024-03-23T11:36:40;153790.09;;;18.56;36.73
10006;BME280;5042;42.626;23.382;2024-03-23T11:39:12;153779.66;;;18.52;36.61
10006;BME280;5042;42.626;23.382;2024-03-23T11:41:48;153717.06;;;18.28;35.25
10006;BME280;5042;42.626;23.382;2024-03-23T11:44:16;153628.41;;;17.93;34.15
10006;BME280;5042;42.626;23.382;2024-03-23T11:46:43;153537.09;;;17.57;35.01
10006;BME280;5042;42.626;23.382;2024-03-23T11:49:22;153556.63;;;17.65;35.31
10006;BME280;5042;42.626;23.382;2024-03-23T11:51:50;153604.91;;;17.84;36.19
10006;BME280;5042;42.626;23.382;2024-03-23T11:54:20;153565.78;;;17.68;35.81
10006;BME280;5042;42.626;23.382;2024-03-23T11:56:56;153548.84;;;17.62;34.98
10006;BME280;5042;42.626;23.382;2024-03-23T11:59:34;153554.06;;;17.64;37.53
10006;BME280;5042;42.626;23.382;2024-03-23T12:02:06;153644.06;;;17.99;35.08
10006;BME280;5042;42.626;23.382;2024-03-23T12:04:32;153621.88;;;17.90;34.20
10006;BME280;5042;42.626;23.382;2024-03-23T12:07:10;153655.78;;;18.04;37.17
10006;BME280;5042;42.626;23.382;2024-03-23T12:09:36;153677.94;;;18.12;36.01
10006;BME280;5042;42.626;23.382;2024-03-23T12:12:07;153805.72;;;18.62;34.45
10006;BME280;5042;42.626;23.382;2024-03-23T12:14:35;153633.63;;;17.95;34.16
10006;BME280;5042;42.626;23.382;2024-03-23T12:17:09;153667.53;;;18.08;34.95
10006;BME280;5042;42.626;23.382;2024-03-23T12:19:36;153672.72;;;18.10;33.98
10006;BME280;5042;42.626;23.382;2024-03-23T12:22:03;153641.44;;;17.98;34.47
10006;BME280;5042;42.626;23.382;2024-03-23T12:24:29;153598.41;;;17.81;33.82
10006;BME280;5042;42.626;23.382;2024-03-23T12:27:00;153481.06;;;17.35;37.40
10006;BME280;5042;42.626;23.382;2024-03-23T12:29:28;153732.69;;;18.34;36.35
10006;BME280;5042;42.626;23.382;2024-03-23T12:31:58;153709.22;;;18.25;32.71
10006;BME280;5042;42.626;23.382;2024-03-23T12:34:24;153604.91;;;17.84;33.17
10006;BME280;5042;42.626;23.382;2024-03-23T12:36:51;153542.31;;;17.59;33.27
10006;BME280;5042;42.626;23.382;2024-03-23T12:39:17;153517.56;;;17.49;34.16
10006;BME280;5042;42.626;23.382;2024-03-23T12:41:45;153508.41;;;17.46;35.14
10006;BME280;5042;42.626;23.382;2024-03-23T12:44:11;153612.72;;;17.87;35.92
10006;BME280;5042;42.626;23.382;2024-03-23T12:46:39;153722.31;;;18.30;35.00
10006;BME280;5042;42.626;23.382;2024-03-23T12:49:06;153786.19;;;18.55;32.80
10006;BME280;5042;42.626;23.382;2024-03-23T12:51:33;153769.22;;;18.48;34.23
10006;BME280;5042;42.626;23.382;2024-03-23T12:53:59;153641.44;;;17.98;33.28
10006;BME280;5042;42.626;23.382;2024-03-23T12:56:27;153644.06;;;17.99;32.92
10006;BME280;5042;42.626;23.382;2024-03-23T12:58:53;153698.81;;;18.20;34.59
10006;BME280;5042;42.626;23.382;2024-03-23T13:01:22;153702.69;;;18.22;33.70
10006;BME280;5042;42.626;23.382;2024-03-23T13:03:49;153543.63;;;17.59;31.42
10006;BME280;5042;42.626;23.382;2024-03-23T13:06:17;153498.03;;;17.42;32.15
10006;BME280;5042;42.626;23.382;2024-03-23T13:08:44;153512.34;;;17.47;33.59
10006;BME280;5042;42.626;23.382;2024-03-23T13:11:11;153580.09;;;17.74;33.27
10006;BME280;5042;42.626;23.382;2024-03-23T13:13:37;153651.88;;;18.02;32.20
10006;BME280;5042;42.626;23.382;2024-03-23T13:16:04;153589.25;;;17.77;31.69
10006;BME280;5042;42.626;23.382;2024-03-23T13:18:31;153495.38;;;17.41;32.57
10006;BME280;5042;42.626;23.382;2024-03-23T13:20:58;153533.16;;;17.55;32.62
10006;BME280;5042;42.626;23.382;2024-03-23T13:23:26;153452.38;;;17.24;31.12
10006;BME280;5042;42.626;23.382;2024-03-23T13:25:54;153496.69;;;17.41;31.94
10006;BME280;5042;42.626;23.382;2024-03-23T13:28:21;153557.94;;;17.65;31.73
10006;BME280;5042;42.626;23.382;2024-03-23T13:30:52;153659.69;;;18.05;30.57
10006;BME280;5042;42.626;23.382;2024-03-23T13:33:17;153756.19;;;18.43;30.69
10006;BME280;5042;42.626;23.382;2024-03-23T13:35:51;153795.34;;;18.58;30.95
10006;BME280;5042;42.626;23.382;2024-03-23T13:38:17;153871.03;;;18.88;29.95
10006;BME280;5042;42.626;23.382;2024-03-23T13:40:53;153910.19;;;19.03;29.49
10006;BME280;5042;42.626;23.382;2024-03-23T13:43:19;153932.34;;;19.12;29.47
10006;BME280;5042;42.626;23.382;2024-03-23T13:45:47;153821.41;;;18.69;27.38
10006;BME280;5042;42.626;23.382;2024-03-23T13:48:13;153869.72;;;18.88;28.77